sensor_id;sensor_type;location;lat;lon;timestamp;pressure;altitude;pressure_sealevel;temperature;humidity
10464;BME280;5279;42.048;24.638;2022-09-12T00:01:17;97120.41;;;17.79;100.00
10464;BME280;5279;42.048;24.638;2022-09-12T00:03:45;97118.38;;;17.81;100.00
10464;BME280;5279;42.048;24.638;2022-09-12T00:06:16;97104.50;;;17.71;100.00
10464;BME280;5279;42.048;24.638;2022-09-12T00:08:44;97104.72;;;17.76;100.00
10464;BME280;5279;42.048;24.638;2022-09-12T00:11:13;97105.34;;;17.71;100.00
10464;BME280;5279;42.048;24.638;2022-09-12T00:13:41;97103.50;;;17.72;100.00
10464;BME280;5279;42.048;24.638;2022-09-12T00:16:14;97100.56;;;17.67;100.00
10464;BME280;5279;42.048;24.638;2022-09-12T00:18:42;97108.84;;;17.65;100.00
10464;BME280;5279;42.048;24.638;2022-09-12T00:21:11;97122.81;;;17.61;100.00
10464;BME280;5279;42.048;24.638;2022-09-12T00:23:38;97115.81;;;17.60;100.00
10464;BME280;5279;42.048;24.638;2022-09-12T00:26:06;97129.84;;;17.62;100.00
10464;BME280;5279;42.048;24.638;2022-09-12T00:28:36;97122.47;;;17.77;100.00
10464;BME280;5279;42.048;24.638;2022-09-12T00:31:05;97116.28;;;17.76;100.00
10464;BME280;5279;42.048;24.638;2022-09-12T00:33:32;97115.03;;;17.79;100.00
10464;BME280;5279;42.048;24.638;2022-09-12T00:36:03;97115.03;;;17.66;100.00
10464;BME280;5279;42.048;24.638;2022-09-12T00:38:30;97118.38;;;17.81;100.00
10464;BME280;5279;42.048;24.638;2022-09-12T00:40:57;97120.41;;;17.79;100.00
10464;BME280;5279;42.048;24.638;2022-09-12T00:43:37;97107.22;;;17.77;100.00
10464;BME280;5279;42.048;24.638;2022-09-12T00:46:09;97103.31;;;17.80;100.00
10464;BME280;5279;42.048;24.638;2022-09-12T00:48:43;97103.06;;;17.68;100.00
10464;BME280;5279;42.048;24.638;2022-09-12T00:51:12;97103.03;;;17.62;100.00
10464;BME280;5279;42.048;24.638;2022-09-12T00:53:40;97115.75;;;17.53;100.00
10464;BME280;5279;42.048;24.638;2022-09-12T00:56:10;97096.94;;;17.40;100.00
10464;BME280;5279;42.048;24.638;2022-09-12T00:58:44;97098.41;;;17.42;100.00
10464;BME280;5279;42.048;24.638;2022-09-12T01:01:13;97102.94;;;17.48;100.00
10464;BME280;5279;42.048;24.638;2022-09-12T01:03:41;97089.34;;;17.43;100.00
10464;BME280;5279;42.048;24.638;2022-09-12T01:06:12;97083.13;;;17.36;100.00
10464;BME280;5279;42.048;24.638;2022-09-12T01:08:42;97081.50;;;17.42;100.00
10464;BME280;5279;42.048;24.638;2022-09-12T01:11:11;97086.19;;;17.33;100.00
10464;BME280;5279;42.048;24.638;2022-09-12T01:13:40;97088.66;;;17.28;100.00
10464;BME280;5279;42.048;24.638;2022-09-12T01:16:07;97095.25;;;17.26;100.00
10464;BME280;5279;42.048;24.638;2022-09-12T01:18:44;97095.41;;;17.24;100.00
10464;BME280;5279;42.048;24.638;2022-09-12T01:21:19;97101.56;;;17.18;100.00
10464;BME280;5279;42.048;24.638;2022-09-12T01:30:28;97098.44;;;17.08;100.00
10464;BME280;5279;42.048;24.638;2022-09-12T01:33:29;97098.19;;;17.03;100.00
10464;BME280;5279;42.048;24.638;2022-09-12T01:36:22;97097.75;;;16.93;100.00
10464;BME280;5279;42.048;24.638;2022-09-12T01:38:57;97105.38;;;17.03;100.00
10464;BME280;5279;42.048;24.638;2022-09-12T01:41:28;97103.16;;;17.06;100.00
10464;BME280;5279;42.048;24.638;2022-09-12T01:44:01;97092.00;;;16.96;100.00
10464;BME280;5279;42.048;24.638;2022-09-12T01:46:36;97099.47;;;17.07;100.00
10464;BME280;5279;42.048;24.638;2022-09-12T01:49:12;97087.50;;;17.03;100.00
10464;BME280;5279;42.048;24.638;2022-09-12T01:51:44;97101.53;;;17.12;100.00
10464;BME280;5279;42.048;24.638;2022-09-12T01:54:17;97108.13;;;17.09;100.00
10464;BME280;5279;42.048;24.638;2022-09-12T01:56:48;97091.66;;;17.12;100.00
10464;BME280;5279;42.048;24.638;2022-09-12T01:59:20;97104.03;;;17.13;100.00
10464;BME280;5279;42.048;24.638;2022-09-12T02:01:56;97100.09;;;17.09;100.00
10464;BME280;5279;42.048;24.638;2022-09-12T02:04:30;97085.59;;;16.97;100.00
10464;BME280;5279;42.048;24.638;2022-09-12T02:07:05;97102.41;;;17.19;100.00
10464;BME280;5279;42.048;24.638;2022-09-12T02:09:39;97105.28;;;17.17;100.00
10464;BME280;5279;42.048;24.638;2022-09-12T02:12:11;97114.16;;;17.24;100.00
10464;BME280;5279;42.048;24.638;2022-09-12T02:14:44;97104.03;;;17.13;100.00
10464;BME280;5279;42.048;24.638;2022-09-12T02:17:15;97111.88;;;17.21;100.00
10464;BME280;5279;42.048;24.638;2022-09-12T02:19:46;97110.47;;;17.25;100.00
10464;BME280;5279;42.048;24.638;2022-09-12T02:22:17;97108.03;;;17.30;100.00
10464;BME280;5279;42.048;24.638;2022-09-12T02:24:49;97107.81;;;17.25;100.00
10464;BME280;5279;42.048;24.638;2022-09-12T02:27:20;97119.38;;;17.32;100.00
10464;BME280;5279;42.048;24.638;2022-09-12T02:29:49;97109.06;;;17.29;100.00
10464;BME280;5279;42.048;24.638;2022-09-12T02:32:25;97108.28;;;17.35;100.00
10464;BME280;5279;42.048;24.638;2022-09-12T02:34:58;97103.31;;;17.32;100.00
10464;BME280;5279;42.048;24.638;2022-09-12T02:37:44;97094.81;;;17.22;100.00
10464;BME280;5279;42.048;24.638;2022-09-12T02:40:17;97106.53;;;17.21;100.00
10464;BME280;5279;42.048;24.638;2022-09-12T02:42:44;97101.97;;;17.15;100.00
10464;BME280;5279;42.048;24.638;2022-09-12T02:45:12;97091.81;;;17.04;100.00
10464;BME280;5279;42.048;24.638;2022-09-12T02:47:43;97104.81;;;17.07;100.00
10464;BME280;5279;42.048;24.638;2022-09-12T02:50:14;97105.81;;;17.06;100.00
10464;BME280;5279;42.048;24.638;2022-09-12T02:52:42;97098.97;;;16.97;100.00
10464;BME280;5279;42.048;24.638;2022-09-12T02:55:10;97099.19;;;16.96;100.00
10464;BME280;5279;42.048;24.638;2022-09-12T02:57:37;97104.28;;;16.84;100.00
10464;BME280;5279;42.048;24.638;2022-09-12T03:00:06;97101.34;;;16.79;100.00
10464;BME280;5279;42.048;24.638;2022-09-12T03:02:47;97100.50;;;16.78;100.00
10464;BME280;5279;42.048;24.638;2022-09-12T03:05:23;97085.63;;;16.69;100.00
10464;BME280;5279;42.048;24.638;2022-09-12T03:08:08;97108.25;;;16.67;100.00
10464;BME280;5279;42.048;24.638;2022-09-12T03:10:46;97094.63;;;16.62;100.00
10464;BME280;5279;42.048;24.638;2022-09-12T03:13:21;97094.38;;;16.57;100.00
10464;BME280;5279;42.048;24.638;2022-09-12T03:15:58;97089.38;;;16.54;100.00
10464;BME280;5279;42.048;24.638;2022-09-12T03:18:36;97090.59;;;16.51;100.00
10464;BME280;5279;42.048;24.638;2022-09-12T03:21:11;97086.28;;;16.50;100.00
10464;BME280;5279;42.048;24.638;2022-09-12T03:23:43;97097.41;;;16.54;100.00
10464;BME280;5279;42.048;24.638;2022-09-12T03:26:15;97098.28;;;16.54;100.00
10464;BME280;5279;42.048;24.638;2022-09-12T03:28:43;97108.09;;;16.54;100.00
10464;BME280;5279;42.048;24.638;2022-09-12T03:31:13;97093.28;;;16.51;100.00
10464;BME280;5279;42.048;24.638;2022-09-12T03:33:42;97107.34;;;16.60;100.00
10464;BME280;5279;42.048;24.638;2022-09-12T03:36:14;97106.47;;;16.53;100.00
10464;BME280;5279;42.048;24.638;2022-09-12T03:38:42;97113.44;;;16.54;100.00
10464;BME280;5279;42.048;24.638;2022-09-12T03:41:09;97111.63;;;16.54;100.00
10464;BME280;5279;42.048;24.638;2022-09-12T03:43:36;97114.38;;;16.61;100.00
10464;BME280;5279;42.048;24.638;2022-09-12T03:46:03;97123.78;;;16.57;100.00
10464;BME280;5279;42.048;24.638;2022-09-12T03:48:30;97116.13;;;16.54;100.00
10464;BME280;5279;42.048;24.638;2022-09-12T03:51:01;97132.09;;;16.62;100.00
10464;BME280;5279;42.048;24.638;2022-09-12T03:53:28;97130.81;;;16.58;100.00
10464;BME280;5279;42.048;24.638;2022-09-12T03:55:55;97127.50;;;16.56;100.00
10464;BME280;5279;42.048;24.638;2022-09-12T03:58:22;97128.69;;;16.53;100.00
10464;BME280;5279;42.048;24.638;2022-09-12T04:00:49;97125.31;;;16.45;100.00
10464;BME280;5279;42.048;24.638;2022-09-12T04:03:16;97130.03;;;16.42;100.00
10464;BME280;5279;42.048;24.638;2022-09-12T04:05:44;97131.44;;;16.38;100.00
10464;BME280;5279;42.048;24.638;2022-09-12T04:08:28;97128.13;;;16.36;100.00
10464;BME280;5279;42.048;24.638;2022-09-12T04:11:01;97128.38;;;16.41;100.00
10464;BME280;5279;42.048;24.638;2022-09-12T04:13:29;97124.81;;;16.34;100.00
10464;BME280;5279;42.048;24.638;2022-09-12T04:15:56;97141.91;;;16.55;100.00
10464;BME280;5279;42.048;24.638;2022-09-12T04:18:23;97136.91;;;16.52;100.00
10464;BME280;5279;42.048;24.638;2022-09-12T04:20:50;97142.25;;;16.52;100.00
10464;BME280;5279;42.048;24.638;2022-09-12T04:23:17;97132.03;;;16.55;100.00
10464;BME280;5279;42.048;24.638;2022-09-12T04:25:52;97133.09;;;16.61;100.00
10464;BME280;5279;42.048;24.638;2022-09-12T04:28:19;97131.53;;;16.73;100.00
10464;BME280;5279;42.048;24.638;2022-09-12T04:30:46;97129.38;;;16.83;100.00
10464;BME280;5279;42.048;24.638;2022-09-12T04:33:13;97127.41;;;16.98;100.00
10464;BME280;5279;42.048;24.638;2022-09-12T04:35:40;97133.25;;;17.08;100.00
10464;BME280;5279;42.048;24.638;2022-09-12T04:38:07;97145.25;;;17.19;100.00
10464;BME280;5279;42.048;24.638;2022-09-12T04:40:34;97139.38;;;17.36;100.00
10464;BME280;5279;42.048;24.638;2022-09-12T04:43:03;97141.25;;;17.42;100.00
10464;BME280;5279;42.048;24.638;2022-09-12T04:45:31;97136.00;;;17.56;100.00
10464;BME280;5279;42.048;24.638;2022-09-12T04:47:58;97146.38;;;17.72;100.00
10464;BME280;5279;42.048;24.638;2022-09-12T04:50:25;97149.28;;;17.77;98.89
10464;BME280;5279;42.048;24.638;2022-09-12T04:52:53;97157.38;;;17.90;95.46
10464;BME280;5279;42.048;24.638;2022-09-12T04:55:21;97151.44;;;18.08;97.09
10464;BME280;5279;42.048;24.638;2022-09-12T04:57:49;97159.72;;;18.19;92.65
10464;BME280;5279;42.048;24.638;2022-09-12T05:00:18;97163.44;;;18.31;93.25
10464;BME280;5279;42.048;24.638;2022-09-12T05:02:45;97160.56;;;18.39;90.84
10464;BME280;5279;42.048;24.638;2022-09-12T05:05:12;97160.00;;;18.50;88.06
10464;BME280;5279;42.048;24.638;2022-09-12T05:07:39;97167.66;;;18.60;89.00
10464;BME280;5279;42.048;24.638;2022-09-12T05:10:07;97158.16;;;18.77;87.28
10464;BME280;5279;42.048;24.638;2022-09-12T05:12:34;97156.91;;;18.86;89.81
10464;BME280;5279;42.048;24.638;2022-09-12T05:15:02;97159.16;;;19.09;89.76
10464;BME280;5279;42.048;24.638;2022-09-12T05:17:30;97159.38;;;19.14;89.08
10464;BME280;5279;42.048;24.638;2022-09-12T05:19:58;97153.16;;;19.20;86.94
10464;BME280;5279;42.048;24.638;2022-09-12T05:22:26;97162.84;;;19.21;89.32
10464;BME280;5279;42.048;24.638;2022-09-12T05:24:53;97156.88;;;19.06;92.14
10464;BME280;5279;42.048;24.638;2022-09-12T05:27:20;97156.09;;;18.99;86.68
10464;BME280;5279;42.048;24.638;2022-09-12T05:29:47;97159.78;;;18.98;91.04
10464;BME280;5279;42.048;24.638;2022-09-12T05:32:14;97150.72;;;18.99;84.50
10464;BME280;5279;42.048;24.638;2022-09-12T05:34:42;97167.25;;;19.02;85.13
10464;BME280;5279;42.048;24.638;2022-09-12T05:37:08;97154.84;;;19.08;88.93
10464;BME280;5279;42.048;24.638;2022-09-12T05:39:35;97151.31;;;19.01;85.34
10464;BME280;5279;42.048;24.638;2022-09-12T05:42:03;97162.09;;;18.81;89.50
10464;BME280;5279;42.048;24.638;2022-09-12T05:44:30;97162.09;;;18.75;90.61
10464;BME280;5279;42.048;24.638;2022-09-12T05:46:57;97171.75;;;18.76;83.34
10464;BME280;5279;42.048;24.638;2022-09-12T05:49:25;97146.38;;;18.52;89.13
10464;BME280;5279;42.048;24.638;2022-09-12T05:51:53;97168.84;;;18.44;89.10
10464;BME280;5279;42.048;24.638;2022-09-12T05:54:19;97166.16;;;18.44;91.56
10464;BME280;5279;42.048;24.638;2022-09-12T05:56:47;97168.00;;;18.44;92.12
10464;BME280;5279;42.048;24.638;2022-09-12T05:59:16;97179.16;;;18.47;87.32
10464;BME280;5279;42.048;24.638;2022-09-12T06:01:44;97173.00;;;18.53;92.54
10464;BME280;5279;42.048;24.638;2022-09-12T06:04:11;97181.28;;;18.65;82.37
10464;BME280;5279;42.048;24.638;2022-09-12T06:06:42;97179.41;;;18.92;79.35
10464;BME280;5279;42.048;24.638;2022-09-12T06:09:11;97182.94;;;18.99;79.66
10464;BME280;5279;42.048;24.638;2022-09-12T06:11:39;97174.47;;;19.02;84.75
10464;BME280;5279;42.048;24.638;2022-09-12T06:14:06;97184.97;;;18.97;81.00
10464;BME280;5279;42.048;24.638;2022-09-12T06:16:34;97176.72;;;19.05;82.89
10464;BME280;5279;42.048;24.638;2022-09-12T06:19:03;97180.03;;;19.07;79.34
10464;BME280;5279;42.048;24.638;2022-09-12T06:21:32;97183.13;;;19.24;75.98
10464;BME280;5279;42.048;24.638;2022-09-12T06:24:00;97178.13;;;19.53;76.83
10464;BME280;5279;42.048;24.638;2022-09-12T06:26:29;97169.63;;;19.63;79.08
10464;BME280;5279;42.048;24.638;2022-09-12T06:28:58;97172.84;;;19.85;80.51
10464;BME280;5279;42.048;24.638;2022-09-12T06:31:26;97175.22;;;20.06;74.12
10464;BME280;5279;42.048;24.638;2022-09-12T06:33:55;97180.19;;;20.09;72.87
10464;BME280;5279;42.048;24.638;2022-09-12T06:36:23;97183.47;;;20.11;76.19
10464;BME280;5279;42.048;24.638;2022-09-12T06:38:54;97178.25;;;20.16;72.87
10464;BME280;5279;42.048;24.638;2022-09-12T06:41:22;97168.59;;;20.46;79.91
10464;BME280;5279;42.048;24.638;2022-09-12T06:43:50;97177.47;;;20.53;68.79
10464;BME280;5279;42.048;24.638;2022-09-12T06:46:17;97183.66;;;20.85;71.58
10464;BME280;5279;42.048;24.638;2022-09-12T06:48:44;97185.72;;;21.14;68.71
10464;BME280;5279;42.048;24.638;2022-09-12T06:51:13;97188.00;;;21.54;66.42
10464;BME280;5279;42.048;24.638;2022-09-12T06:53:41;97173.94;;;21.52;64.87
10464;BME280;5279;42.048;24.638;2022-09-12T06:56:11;97179.69;;;21.73;62.14
10464;BME280;5279;42.048;24.638;2022-09-12T06:58:39;97173.56;;;22.03;59.79
10464;BME280;5279;42.048;24.638;2022-09-12T07:01:09;97171.09;;;22.01;65.61
10464;BME280;5279;42.048;24.638;2022-09-12T07:03:37;97175.59;;;21.89;61.37
10464;BME280;5279;42.048;24.638;2022-09-12T07:06:06;97180.84;;;22.32;61.00
10464;BME280;5279;42.048;24.638;2022-09-12T07:08:34;97173.91;;;22.54;58.27
10464;BME280;5279;42.048;24.638;2022-09-12T07:11:08;97176.69;;;22.77;58.90
10464;BME280;5279;42.048;24.638;2022-09-12T07:13:35;97167.56;;;23.02;56.57
10464;BME280;5279;42.048;24.638;2022-09-12T07:16:03;97172.97;;;23.02;57.18
10464;BME280;5279;42.048;24.638;2022-09-12T07:18:31;97181.63;;;22.80;54.41
10464;BME280;5279;42.048;24.638;2022-09-12T07:20:59;97189.16;;;22.78;55.47
10464;BME280;5279;42.048;24.638;2022-09-12T07:23:26;97165.41;;;22.80;56.03
10464;BME280;5279;42.048;24.638;2022-09-12T07:25:53;97184.94;;;22.94;54.01
10464;BME280;5279;42.048;24.638;2022-09-12T07:28:21;97188.34;;;22.60;55.76
10464;BME280;5279;42.048;24.638;2022-09-12T07:30:48;97188.50;;;22.65;54.72
10464;BME280;5279;42.048;24.638;2022-09-12T07:33:15;97177.59;;;22.71;53.51
10464;BME280;5279;42.048;24.638;2022-09-12T07:35:44;97181.97;;;22.72;52.55
10464;BME280;5279;42.048;24.638;2022-09-12T07:38:10;97181.53;;;22.57;56.09
10464;BME280;5279;42.048;24.638;2022-09-12T07:40:37;97179.63;;;22.46;53.68
10464;BME280;5279;42.048;24.638;2022-09-12T07:43:05;97186.03;;;22.63;54.41
10464;BME280;5279;42.048;24.638;2022-09-12T07:45:31;97176.22;;;22.80;52.92
10464;BME280;5279;42.048;24.638;2022-09-12T07:47:58;97174.34;;;22.93;55.74
10464;BME280;5279;42.048;24.638;2022-09-12T07:50:25;97182.63;;;23.21;51.69
10464;BME280;5279;42.048;24.638;2022-09-12T07:52:54;97183.81;;;23.48;53.71
10464;BME280;5279;42.048;24.638;2022-09-12T07:55:21;97176.44;;;23.44;48.14
10464;BME280;5279;42.048;24.638;2022-09-12T07:57:48;97173.94;;;23.42;50.20
10464;BME280;5279;42.048;24.638;2022-09-12T08:00:16;97169.94;;;23.10;50.27
10464;BME280;5279;42.048;24.638;2022-09-12T08:02:43;97175.56;;;22.97;49.08
10464;BME280;5279;42.048;24.638;2022-09-12T08:05:10;97171.81;;;22.98;49.11
10464;BME280;5279;42.048;24.638;2022-09-12T08:07:37;97159.59;;;23.18;52.85
10464;BME280;5279;42.048;24.638;2022-09-12T08:10:06;97164.41;;;23.51;50.10
10464;BME280;5279;42.048;24.638;2022-09-12T08:12:33;97150.41;;;23.54;50.21
10464;BME280;5279;42.048;24.638;2022-09-12T08:15:00;97154.78;;;23.55;47.87
10464;BME280;5279;42.048;24.638;2022-09-12T08:17:27;97156.13;;;23.81;50.09
10464;BME280;5279;42.048;24.638;2022-09-12T08:19:54;97155.47;;;24.14;49.44
10464;BME280;5279;42.048;24.638;2022-09-12T08:22:21;97145.13;;;24.11;45.87
10464;BME280;5279;42.048;24.638;2022-09-12T08:24:48;97154.16;;;23.76;45.40
10464;BME280;5279;42.048;24.638;2022-09-12T08:27:17;97154.19;;;24.05;48.03
10464;BME280;5279;42.048;24.638;2022-09-12T08:29:43;97151.78;;;24.48;45.78
10464;BME280;5279;42.048;24.638;2022-09-12T08:32:10;97148.72;;;24.56;46.87
10464;BME280;5279;42.048;24.638;2022-09-12T08:34:37;97154.22;;;24.61;44.57
10464;BME280;5279;42.048;24.638;2022-09-12T08:37:04;97147.53;;;24.52;43.25
10464;BME280;5279;42.048;24.638;2022-09-12T08:39:31;97151.56;;;24.66;47.77
10464;BME280;5279;42.048;24.638;2022-09-12T08:42:00;97144.00;;;25.13;47.96
10464;BME280;5279;42.048;24.638;2022-09-12T08:44:45;97139.84;;;25.44;42.86
10464;BME280;5279;42.048;24.638;2022-09-12T08:47:24;97140.66;;;25.61;42.81
10464;BME280;5279;42.048;24.638;2022-09-12T08:49:59;97146.84;;;25.78;45.59
10464;BME280;5279;42.048;24.638;2022-09-12T08:52:32;97129.41;;;25.52;43.26
10464;BME280;5279;42.048;24.638;2022-09-12T08:55:00;97133.72;;;25.70;46.06
10464;BME280;5279;42.048;24.638;2022-09-12T08:57:28;97132.66;;;25.93;42.21
10464;BME280;5279;42.048;24.638;2022-09-12T08:59:56;97143.06;;;26.23;43.00
10464;BME280;5279;42.048;24.638;2022-09-12T09:05:40;97132.53;;;26.53;41.93
10464;BME280;5279;42.048;24.638;2022-09-12T09:11:32;97136.47;;;25.75;41.55
10464;BME280;5279;42.048;24.638;2022-09-12T09:14:14;97126.78;;;25.79;42.60
10464;BME280;5279;42.048;24.638;2022-09-12T09:17:01;97141.91;;;25.75;42.32
10464;BME280;5279;42.048;24.638;2022-09-12T09:19:31;97146.72;;;25.68;40.64
10464;BME280;5279;42.048;24.638;2022-09-12T09:22:04;97137.75;;;25.89;40.30
10464;BME280;5279;42.048;24.638;2022-09-12T09:24:33;97140.00;;;26.41;38.27
10464;BME280;5279;42.048;24.638;2022-09-12T09:27:08;97128.81;;;27.28;37.73
10464;BME280;5279;42.048;24.638;2022-09-12T09:29:42;97140.19;;;28.18;34.73
10464;BME280;5279;42.048;24.638;2022-09-12T09:32:16;97124.81;;;28.95;33.83
10464;BME280;5279;42.048;24.638;2022-09-12T09:34:44;97128.91;;;28.77;34.16
10464;BME280;5279;42.048;24.638;2022-09-12T09:37:16;97125.63;;;28.80;33.67
10464;BME280;5279;42.048;24.638;2022-09-12T09:39:51;97129.47;;;28.89;32.27
10464;BME280;5279;42.048;24.638;2022-09-12T09:42:31;97114.63;;;29.76;33.29
10464;BME280;5279;42.048;24.638;2022-09-12T09:45:10;97113.63;;;30.65;32.97
10464;BME280;5279;42.048;24.638;2022-09-12T09:47:38;97121.25;;;30.73;31.07
10464;BME280;5279;42.048;24.638;2022-09-12T09:50:08;97121.59;;;30.07;31.01
10464;BME280;5279;42.048;24.638;2022-09-12T09:52:37;97124.59;;;31.32;30.45
10464;BME280;5279;42.048;24.638;2022-09-12T09:55:12;97120.00;;;31.80;29.52
10464;BME280;5279;42.048;24.638;2022-09-12T09:57:44;97113.25;;;31.73;28.82
10464;BME280;5279;42.048;24.638;2022-09-12T10:00:22;97105.91;;;30.33;31.21
10464;BME280;5279;42.048;24.638;2022-09-12T10:06:21;97119.66;;;28.93;34.44
10464;BME280;5279;42.048;24.638;2022-09-12T10:08:49;97103.13;;;29.79;33.18
10464;BME280;5279;42.048;24.638;2022-09-12T10:11:19;97122.56;;;30.37;31.28
10464;BME280;5279;42.048;24.638;2022-09-12T10:13:57;97117.84;;;29.93;31.72
10464;BME280;5279;42.048;24.638;2022-09-12T10:16:26;97109.00;;;30.65;32.23
10464;BME280;5279;42.048;24.638;2022-09-12T10:18:55;97118.91;;;31.81;28.83
10464;BME280;5279;42.048;24.638;2022-09-12T10:21:28;97113.09;;;33.37;26.92
10464;BME280;5279;42.048;24.638;2022-09-12T10:24:19;97110.22;;;32.40;26.67
10464;BME280;5279;42.048;24.638;2022-09-12T10:26:50;97109.97;;;32.18;27.90
10464;BME280;5279;42.048;24.638;2022-09-12T10:29:21;97120.06;;;33.16;26.25
10464;BME280;5279;42.048;24.638;2022-09-12T10:31:51;97107.59;;;34.11;26.63
10464;BME280;5279;42.048;24.638;2022-09-12T10:34:26;97099.28;;;33.10;26.83
10464;BME280;5279;42.048;24.638;2022-09-12T10:37:02;97111.22;;;34.06;26.71
10464;BME280;5279;42.048;24.638;2022-09-12T10:39:30;97115.97;;;35.35;25.86
10464;BME280;5279;42.048;24.638;2022-09-12T10:41:58;97101.81;;;36.63;24.03
10464;BME280;5279;42.048;24.638;2022-09-12T10:44:26;97101.25;;;36.27;22.69
10464;BME280;5279;42.048;24.638;2022-09-12T10:46:54;97090.63;;;36.60;22.90
10464;BME280;5279;42.048;24.638;2022-09-12T10:49:27;97097.06;;;37.41;22.71
10464;BME280;5279;42.048;24.638;2022-09-12T10:51:55;97101.50;;;37.08;23.54
10464;BME280;5279;42.048;24.638;2022-09-12T10:54:26;97102.72;;;36.25;23.16
10464;BME280;5279;42.048;24.638;2022-09-12T10:59:58;97090.03;;;36.15;22.45
10464;BME280;5279;42.048;24.638;2022-09-12T11:02:29;97081.34;;;36.47;23.16
10464;BME280;5279;42.048;24.638;2022-09-12T11:05:02;97090.66;;;37.66;23.02
10464;BME280;5279;42.048;24.638;2022-09-12T11:07:41;97083.31;;;37.70;21.79
10464;BME280;5279;42.048;24.638;2022-09-12T11:10:29;97084.97;;;37.63;22.82
10464;BME280;5279;42.048;24.638;2022-09-12T11:13:16;97090.34;;;37.42;21.80
10464;BME280;5279;42.048;24.638;2022-09-12T11:16:11;97073.88;;;36.74;21.92
10464;BME280;5279;42.048;24.638;2022-09-12T11:18:52;97086.47;;;37.98;22.92
10464;BME280;5279;42.048;24.638;2022-09-12T11:21:33;97098.56;;;38.44;21.39
10464;BME280;5279;42.048;24.638;2022-09-12T11:24:22;97076.63;;;39.78;19.30
10464;BME280;5279;42.048;24.638;2022-09-12T11:27:03;97075.13;;;40.81;20.75
10464;BME280;5279;42.048;24.638;2022-09-12T11:29:44;97076.97;;;38.08;21.24
10464;BME280;5279;42.048;24.638;2022-09-12T11:32:34;97069.88;;;34.83;23.69
10464;BME280;5279;42.048;24.638;2022-09-12T11:35:14;97062.94;;;34.85;23.90
10464;BME280;5279;42.048;24.638;2022-09-12T11:37:52;97073.28;;;35.33;24.25
10464;BME280;5279;42.048;24.638;2022-09-12T11:40:28;97066.34;;;34.46;24.08
10464;BME280;5279;42.048;24.638;2022-09-12T11:43:04;97065.63;;;33.18;25.95
10464;BME280;5279;42.048;24.638;2022-09-12T11:45:38;97065.47;;;30.69;27.83
10464;BME280;5279;42.048;24.638;2022-09-12T11:48:11;97065.06;;;29.23;31.92
10464;BME280;5279;42.048;24.638;2022-09-12T11:50:41;97067.75;;;28.23;33.98
10464;BME280;5279;42.048;24.638;2022-09-12T11:53:14;97068.59;;;27.61;34.99
10464;BME280;5279;42.048;24.638;2022-09-12T11:55:53;97064.19;;;28.22;33.76
10464;BME280;5279;42.048;24.638;2022-09-12T11:58:26;97047.16;;;30.30;30.27
10464;BME280;5279;42.048;24.638;2022-09-12T12:00:56;97056.44;;;30.68;30.34
10464;BME280;5279;42.048;24.638;2022-09-12T12:03:30;97058.47;;;30.58;31.48
10464;BME280;5279;42.048;24.638;2022-09-12T12:06:01;97052.72;;;30.88;30.09
10464;BME280;5279;42.048;24.638;2022-09-12T12:08:31;97051.28;;;31.95;28.94
10464;BME280;5279;42.048;24.638;2022-09-12T12:10:59;97039.31;;;33.99;27.06
10464;BME280;5279;42.048;24.638;2022-09-12T12:13:31;97037.06;;;34.50;25.73
10464;BME280;5279;42.048;24.638;2022-09-12T12:16:01;97031.38;;;34.11;25.14
10464;BME280;5279;42.048;24.638;2022-09-12T12:18:32;97041.19;;;33.76;26.08
10464;BME280;5279;42.048;24.638;2022-09-12T12:21:20;97045.50;;;34.68;24.38
10464;BME280;5279;42.048;24.638;2022-09-12T12:24:03;97034.72;;;35.02;23.92
10464;BME280;5279;42.048;24.638;2022-09-12T12:29:43;97022.22;;;33.75;23.89
10464;BME280;5279;42.048;24.638;2022-09-12T12:32:25;97027.81;;;34.11;23.71
10464;BME280;5279;42.048;24.638;2022-09-12T12:38:27;97022.22;;;36.48;21.86
10464;BME280;5279;42.048;24.638;2022-09-12T12:44:47;97025.56;;;39.34;19.75
10464;BME280;5279;42.048;24.638;2022-09-12T12:47:17;97023.34;;;37.92;20.25
10464;BME280;5279;42.048;24.638;2022-09-12T12:49:50;97016.69;;;36.23;22.34
10464;BME280;5279;42.048;24.638;2022-09-12T12:52:18;97011.84;;;34.71;23.77
10464;BME280;5279;42.048;24.638;2022-09-12T12:54:54;97020.91;;;32.99;25.38
10464;BME280;5279;42.048;24.638;2022-09-12T12:57:27;97031.16;;;32.80;25.72
10464;BME280;5279;42.048;24.638;2022-09-12T13:00:00;97029.25;;;33.53;24.78
10464;BME280;5279;42.048;24.638;2022-09-12T13:02:31;97029.19;;;32.80;26.32
10464;BME280;5279;42.048;24.638;2022-09-12T13:05:03;97026.97;;;32.31;26.97
10464;BME280;5279;42.048;24.638;2022-09-12T13:07:34;97022.59;;;32.30;27.16
10464;BME280;5279;42.048;24.638;2022-09-12T13:10:05;97015.53;;;31.39;28.09
10464;BME280;5279;42.048;24.638;2022-09-12T13:12:34;97013.63;;;30.54;29.53
10464;BME280;5279;42.048;24.638;2022-09-12T13:15:27;97017.28;;;29.95;30.52
10464;BME280;5279;42.048;24.638;2022-09-12T13:17:52;97016.09;;;30.11;32.30
10464;BME280;5279;42.048;24.638;2022-09-12T13:20:25;97022.28;;;29.78;29.58
10464;BME280;5279;42.048;24.638;2022-09-12T13:22:54;97018.31;;;30.09;30.21
10464;BME280;5279;42.048;24.638;2022-09-12T13:25:28;97007.19;;;30.40;29.32
10464;BME280;5279;42.048;24.638;2022-09-12T13:27:57;97014.06;;;29.88;30.65
10464;BME280;5279;42.048;24.638;2022-09-12T13:30:26;96998.16;;;29.31;32.70
10464;BME280;5279;42.048;24.638;2022-09-12T13:32:56;97017.63;;;28.74;33.81
10464;BME280;5279;42.048;24.638;2022-09-12T13:35:36;97009.16;;;28.20;34.84
10464;BME280;5279;42.048;24.638;2022-09-12T13:38:10;97006.91;;;27.87;35.65
10464;BME280;5279;42.048;24.638;2022-09-12T13:40:55;97005.84;;;27.31;34.80
10464;BME280;5279;42.048;24.638;2022-09-12T13:43:34;97010.81;;;26.97;36.27
10464;BME280;5279;42.048;24.638;2022-09-12T13:46:05;97017.59;;;26.89;35.52
10464;BME280;5279;42.048;24.638;2022-09-12T13:48:32;97013.31;;;27.03;35.91